createdAt,value
2023-05-05T00:01:56.897Z,13.41
2023-05-05T00:04:23.467Z,13.44
2023-05-05T00:06:49.936Z,13.41
2023-05-05T00:09:16.336Z,13.36
2023-05-05T00:11:42.832Z,13.31
2023-05-05T00:14:09.470Z,13.31
2023-05-05T00:16:37.001Z,13.28
2023-05-05T00:19:03.520Z,13.29
2023-05-05T00:21:30.144Z,13.24
2023-05-05T00:23:56.779Z,13.22
2023-05-05T00:26:23.216Z,13.23
2023-05-05T00:28:49.690Z,13.18
2023-05-05T00:31:16.175Z,13.21
2023-05-05T00:33:43.197Z,13.22
2023-05-05T00:36:09.884Z,13.23
2023-05-05T00:38:36.455Z,13.24
2023-05-05T00:41:03.100Z,13.24
2023-05-05T00:43:29.618Z,13.27
2023-05-05T00:45:56.871Z,13.27
2023-05-05T00:48:23.249Z,13.31
2023-05-05T00:50:50.107Z,13.32
2023-05-05T00:53:16.474Z,13.31
2023-05-05T00:55:43.222Z,13.31
2023-05-05T00:58:09.991Z,13.35
2023-05-05T01:00:36.718Z,13.37
2023-05-05T01:03:03.673Z,13.39
2023-05-05T01:05:30.165Z,13.43
2023-05-05T01:07:56.606Z,13.47
2023-05-05T01:10:23.333Z,13.55
2023-05-05T01:12:50.220Z,13.57
2023-05-05T01:15:16.692Z,13.58
2023-05-05T01:17:43.485Z,13.57
2023-05-05T01:20:11.101Z,13.50
2023-05-05T01:22:37.645Z,13.45
2023-05-05T01:25:04.255Z,13.41
2023-05-05T01:27:33.375Z,13.42
2023-05-05T01:29:59.868Z,13.45
2023-05-05T01:32:26.467Z,13.39
2023-05-05T01:34:53.939Z,13.33
2023-05-05T01:37:20.668Z,13.30
2023-05-05T01:39:47.081Z,13.28
2023-05-05T01:42:13.441Z,13.27
2023-05-05T01:44:40.006Z,13.21
2023-05-05T01:47:06.492Z,13.14
2023-05-05T01:49:33.956Z,13.12
2023-05-05T01:52:00.318Z,13.08
2023-05-05T01:54:27.065Z,13.10
2023-05-05T01:56:53.629Z,13.06
2023-05-05T01:59:20.119Z,13.03
2023-05-05T02:01:46.482Z,13.00
2023-05-05T02:04:12.866Z,12.96
2023-05-05T02:06:39.259Z,12.93
2023-05-05T02:09:05.749Z,12.92
2023-05-05T02:11:32.184Z,12.89
2023-05-05T02:13:58.620Z,12.92
2023-05-05T02:16:25.205Z,12.94
2023-05-05T02:18:53.629Z,12.97
2023-05-05T02:21:19.962Z,13.00
2023-05-05T02:23:47.450Z,13.05
2023-05-05T02:26:13.844Z,13.08
2023-05-05T02:28:40.247Z,13.07
2023-05-05T02:31:06.628Z,13.06
2023-05-05T02:33:33.289Z,13.10
2023-05-05T02:35:59.936Z,13.12
2023-05-05T02:38:26.539Z,13.13
2023-05-05T02:40:52.958Z,13.12
2023-05-05T02:43:19.709Z,13.04
2023-05-05T02:45:46.586Z,12.96
2023-05-05T02:48:13.166Z,12.94
2023-05-05T02:50:39.612Z,12.89
2023-05-05T02:53:06.035Z,12.84
2023-05-05T02:55:32.382Z,12.78
2023-05-05T02:57:58.855Z,12.56
2023-05-05T03:00:25.315Z,12.55
2023-05-05T03:02:51.771Z,12.43
2023-05-05T03:05:18.226Z,12.34
2023-05-05T03:07:44.734Z,12.33
2023-05-05T03:10:11.194Z,12.38
2023-05-05T03:12:37.954Z,12.39
2023-05-05T03:15:04.391Z,12.41
2023-05-05T03:17:30.819Z,12.35
2023-05-05T03:19:57.394Z,12.33
2023-05-05T03:22:23.789Z,12.33
2023-05-05T03:24:50.220Z,12.23
2023-05-05T03:27:16.688Z,12.12
2023-05-05T03:29:43.137Z,12.20
2023-05-05T03:32:10.051Z,12.25
2023-05-05T03:34:36.737Z,12.22
2023-05-05T03:37:03.197Z,12.15
2023-05-05T03:39:29.997Z,12.08
2023-05-05T03:41:56.614Z,12.07
2023-05-05T03:44:23.076Z,12.07
2023-05-05T03:46:49.519Z,12.08
2023-05-05T03:49:15.899Z,12.11
2023-05-05T03:51:42.346Z,12.08
2023-05-05T03:54:08.732Z,12.08
2023-05-05T03:56:35.129Z,12.06
2023-05-05T03:59:01.606Z,12.06
2023-05-05T04:01:27.982Z,12.05
2023-05-05T04:03:54.441Z,12.02
2023-05-05T04:06:20.846Z,11.98
2023-05-05T04:08:47.232Z,12.01
2023-05-05T04:11:13.847Z,12.02
2023-05-05T04:13:40.184Z,11.90
2023-05-05T04:16:06.948Z,11.87
2023-05-05T04:18:34.315Z,11.81
2023-05-05T04:21:00.691Z,11.76
2023-05-05T04:23:28.115Z,11.74
2023-05-05T04:25:56.854Z,11.75
2023-05-05T04:28:23.185Z,11.76
2023-05-05T04:30:49.690Z,11.72
2023-05-05T04:33:16.030Z,11.68
2023-05-05T04:35:44.889Z,11.69
2023-05-05T04:38:11.267Z,11.70
2023-05-05T04:40:37.886Z,11.73
2023-05-05T04:43:06.375Z,11.81
2023-05-05T04:45:32.765Z,11.83
2023-05-05T04:47:59.123Z,11.81
2023-05-05T04:50:25.657Z,11.87
2023-05-05T04:52:52.731Z,11.98
2023-05-05T04:55:19.363Z,12.02
2023-05-05T04:57:45.923Z,12.07
2023-05-05T05:00:12.299Z,12.11
2023-05-05T05:02:38.842Z,12.17
2023-05-05T05:05:05.256Z,12.22
2023-05-05T05:07:31.798Z,12.27
2023-05-05T05:09:58.190Z,12.32
2023-05-05T05:12:24.620Z,12.41
2023-05-05T05:14:51.007Z,12.46
2023-05-05T05:17:18.629Z,12.49
2023-05-05T05:19:45.050Z,12.54
2023-05-05T05:22:11.494Z,12.59
2023-05-05T05:24:38.010Z,12.67
2023-05-05T05:27:04.537Z,12.75
2023-05-05T05:29:30.930Z,12.84
2023-05-05T05:31:57.368Z,12.95
2023-05-05T05:34:23.883Z,13.03
2023-05-05T05:36:50.750Z,13.13
2023-05-05T05:39:17.119Z,13.13
2023-05-05T05:41:43.497Z,13.19
2023-05-05T05:44:09.846Z,13.28
2023-05-05T05:46:36.256Z,13.38
2023-05-05T05:49:02.651Z,13.51
2023-05-05T05:51:29.058Z,13.62
2023-05-05T05:53:58.780Z,13.75
2023-05-05T05:56:25.364Z,13.77
2023-05-05T05:58:51.711Z,13.91
2023-05-05T06:01:18.054Z,14.04
2023-05-05T06:03:44.444Z,14.02
2023-05-05T06:06:10.888Z,14.11
2023-05-05T06:08:37.229Z,14.15
2023-05-05T06:11:03.546Z,14.17
2023-05-05T06:13:29.897Z,14.27
2023-05-05T06:15:56.278Z,14.40
2023-05-05T06:18:22.741Z,14.63
2023-05-05T06:20:49.151Z,14.73
2023-05-05T06:23:15.513Z,14.87
2023-05-05T06:25:41.915Z,15.06
2023-05-05T06:28:08.319Z,15.15
2023-05-05T06:30:34.819Z,15.32
2023-05-05T06:33:02.319Z,15.48
2023-05-05T06:35:28.725Z,15.65
2023-05-05T06:37:55.111Z,15.79
2023-05-05T06:40:21.484Z,15.88
2023-05-05T06:42:48.045Z,15.94
2023-05-05T06:45:14.529Z,16.00
2023-05-05T06:47:40.956Z,16.12
2023-05-05T06:50:08.098Z,16.24
2023-05-05T06:52:34.827Z,16.37
2023-05-05T06:55:01.238Z,16.59
2023-05-05T06:57:27.840Z,16.75
2023-05-05T06:59:54.628Z,16.87
2023-05-05T07:02:21.065Z,16.98
2023-05-05T07:04:47.450Z,17.13
2023-05-05T07:07:13.794Z,17.32
2023-05-05T07:09:40.186Z,17.41
2023-05-05T07:12:06.688Z,17.45
2023-05-05T07:14:33.505Z,17.63
2023-05-05T07:16:59.915Z,17.60
2023-05-05T07:19:27.660Z,17.60
2023-05-05T07:21:54.054Z,17.67
2023-05-05T07:24:20.641Z,17.74
2023-05-05T07:26:47.099Z,17.75
2023-05-05T07:29:13.550Z,17.86
2023-05-05T07:31:40.128Z,17.82
2023-05-05T07:34:06.660Z,17.93
2023-05-05T07:36:33.069Z,18.08
2023-05-05T07:38:59.574Z,18.32
2023-05-05T07:41:26.132Z,18.29
2023-05-05T07:43:53.269Z,18.52
2023-05-05T07:46:19.694Z,18.68
2023-05-05T07:48:46.147Z,18.72
2023-05-05T07:51:12.657Z,18.87
2023-05-05T07:53:38.999Z,18.84
2023-05-05T07:56:08.449Z,18.55
2023-05-05T07:58:35.306Z,18.60
2023-05-05T08:01:01.684Z,18.70
2023-05-05T08:03:28.492Z,18.94
2023-05-05T08:05:55.453Z,19.05
2023-05-05T08:08:21.824Z,19.29
2023-05-05T08:10:48.267Z,19.38
2023-05-05T08:13:14.693Z,19.41
2023-05-05T08:15:41.201Z,19.71
2023-05-05T08:18:07.681Z,19.89
2023-05-05T08:20:34.184Z,20.13
2023-05-05T08:23:00.569Z,20.29
2023-05-05T08:25:27.066Z,20.48
2023-05-05T08:27:53.432Z,20.61
2023-05-05T08:30:20.431Z,20.82
2023-05-05T08:32:46.822Z,20.64
2023-05-05T08:35:13.487Z,20.14
2023-05-05T08:37:40.187Z,19.71
2023-05-05T08:40:06.552Z,19.62
2023-05-05T08:42:36.923Z,19.57
2023-05-05T08:45:05.562Z,19.91
2023-05-05T08:47:32.732Z,20.32
2023-05-05T08:49:59.116Z,20.71
2023-05-05T08:52:25.594Z,20.71
2023-05-05T08:54:51.987Z,20.65
2023-05-05T08:57:18.370Z,21.02
2023-05-05T08:59:44.717Z,21.15
2023-05-05T09:02:11.410Z,21.30
2023-05-05T09:04:37.865Z,21.11
2023-05-05T09:07:04.341Z,21.34
2023-05-05T09:09:30.857Z,21.48
2023-05-05T09:11:57.309Z,21.79
2023-05-05T09:14:23.713Z,21.98
2023-05-05T09:16:50.134Z,22.08
2023-05-05T09:19:16.549Z,21.63
2023-05-05T09:21:43.243Z,21.82
2023-05-05T09:24:09.935Z,20.73
2023-05-05T09:26:36.424Z,20.97
2023-05-05T09:29:02.897Z,21.01
2023-05-05T09:31:30.302Z,21.13
2023-05-05T09:33:56.666Z,21.55
2023-05-05T09:36:23.080Z,21.85
2023-05-05T09:38:49.907Z,22.21
2023-05-05T09:41:16.454Z,22.32
2023-05-05T09:43:42.861Z,22.38
2023-05-05T09:46:09.914Z,22.33
2023-05-05T09:48:36.577Z,21.94
2023-05-05T09:51:02.986Z,21.78
2023-05-05T09:53:29.478Z,21.49
2023-05-05T09:55:55.821Z,21.66
2023-05-05T09:58:22.468Z,21.88
2023-05-05T10:00:48.921Z,22.00
2023-05-05T10:03:15.260Z,22.08
2023-05-05T10:05:41.818Z,21.55
2023-05-05T10:08:08.205Z,21.42
2023-05-05T10:10:35.488Z,21.75
2023-05-05T10:13:02.012Z,22.00
2023-05-05T10:15:29.348Z,21.31
2023-05-05T10:18:06.654Z,21.43
2023-05-05T10:20:34.355Z,21.95
2023-05-05T10:23:00.714Z,22.20
2023-05-05T10:25:28.144Z,22.10
2023-05-05T10:27:54.654Z,22.28
2023-05-05T10:30:21.094Z,22.53
2023-05-05T10:32:59.324Z,22.69
2023-05-05T10:35:38.245Z,22.88
2023-05-05T10:38:04.817Z,23.07
2023-05-05T10:40:33.486Z,23.02
2023-05-05T10:42:59.956Z,23.10
2023-05-05T10:45:26.567Z,22.51
2023-05-05T10:47:53.193Z,21.61
2023-05-05T10:50:19.785Z,21.39
2023-05-05T10:52:46.179Z,21.43
2023-05-05T10:55:12.566Z,21.81
2023-05-05T10:57:41.255Z,22.13
2023-05-05T11:00:07.820Z,22.57
2023-05-05T11:02:34.692Z,23.07
2023-05-05T11:05:01.286Z,23.35
2023-05-05T11:07:27.684Z,23.24
2023-05-05T11:09:54.145Z,23.48
2023-05-05T11:12:20.579Z,23.21
2023-05-05T11:14:46.966Z,22.84
2023-05-05T11:17:13.393Z,22.58
2023-05-05T11:19:39.831Z,21.98
2023-05-05T11:22:06.307Z,21.84
2023-05-05T11:24:32.710Z,22.16
2023-05-05T11:26:59.179Z,22.20
2023-05-05T11:29:25.565Z,22.46
2023-05-05T11:31:52.051Z,22.52
2023-05-05T11:34:20.451Z,22.82
2023-05-05T11:36:49.041Z,22.98
2023-05-05T11:39:15.694Z,23.14
2023-05-05T11:41:42.075Z,23.25
2023-05-05T11:44:08.543Z,23.36
2023-05-05T11:46:35.047Z,22.65
2023-05-05T11:49:01.518Z,22.52
2023-05-05T11:51:27.916Z,22.43
2023-05-05T11:53:54.565Z,22.60
2023-05-05T11:56:21.188Z,22.77
2023-05-05T11:58:47.581Z,23.02
2023-05-05T12:01:13.962Z,23.00
2023-05-05T12:03:40.405Z,23.22
2023-05-05T12:06:06.869Z,22.72
2023-05-05T12:08:33.314Z,22.20
2023-05-05T12:10:59.661Z,21.90
2023-05-05T12:13:26.213Z,21.74
2023-05-05T12:15:52.739Z,21.67
2023-05-05T12:18:19.151Z,21.55
2023-05-05T12:20:45.758Z,21.89
2023-05-05T12:23:12.136Z,22.32
2023-05-05T12:25:39.537Z,22.69
2023-05-05T12:28:05.933Z,23.03
2023-05-05T12:30:32.357Z,23.20
2023-05-05T12:32:58.854Z,23.26
2023-05-05T12:35:25.396Z,23.42
2023-05-05T12:37:51.803Z,23.51
2023-05-05T12:40:18.170Z,23.18
2023-05-05T12:42:46.230Z,23.41
2023-05-05T12:45:13.486Z,23.69
2023-05-05T12:47:39.890Z,23.83
2023-05-05T12:50:06.386Z,23.97
2023-05-05T12:52:32.835Z,24.10
2023-05-05T12:54:59.342Z,24.13
2023-05-05T12:57:26.182Z,23.85
2023-05-05T12:59:52.584Z,23.76
2023-05-05T13:02:19.007Z,23.89
2023-05-05T13:04:45.534Z,24.05
2023-05-05T13:07:12.048Z,24.26
2023-05-05T13:09:39.907Z,24.36
2023-05-05T13:12:06.344Z,24.46
2023-05-05T13:14:32.891Z,24.69
2023-05-05T13:16:59.297Z,24.74
2023-05-05T13:19:25.690Z,24.14
2023-05-05T13:21:52.086Z,24.04
2023-05-05T13:24:28.763Z,24.15
2023-05-05T13:27:04.896Z,24.40
2023-05-05T13:29:31.819Z,24.57
2023-05-05T13:31:58.287Z,24.39
2023-05-05T13:34:24.685Z,24.49
2023-05-05T13:36:51.137Z,24.83
2023-05-05T13:39:17.584Z,24.91
2023-05-05T13:41:44.066Z,25.11
2023-05-05T13:44:10.416Z,24.82
2023-05-05T13:46:36.910Z,24.51
2023-05-05T13:49:03.342Z,24.64
2023-05-05T13:51:29.831Z,24.88
2023-05-05T13:53:56.220Z,24.82
2023-05-05T13:56:22.626Z,24.39
2023-05-05T13:58:49.116Z,23.90
2023-05-05T14:01:15.513Z,23.71
2023-05-05T14:03:41.954Z,23.74
2023-05-05T14:06:08.391Z,23.57
2023-05-05T14:08:34.724Z,23.69
2023-05-05T14:11:01.268Z,23.91
2023-05-05T14:13:27.668Z,23.89
2023-05-05T14:15:54.039Z,23.56
2023-05-05T14:18:20.425Z,22.43
2023-05-05T14:20:46.885Z,22.44
2023-05-05T14:23:13.251Z,22.08
2023-05-05T14:25:39.608Z,22.19
2023-05-05T14:28:06.116Z,21.94
2023-05-05T14:30:32.499Z,21.81
2023-05-05T14:32:58.920Z,21.75
2023-05-05T14:35:25.344Z,21.46
2023-05-05T14:37:51.709Z,21.41
2023-05-05T14:40:18.155Z,21.01
2023-05-05T14:42:44.549Z,20.60
2023-05-05T14:45:10.959Z,20.40
2023-05-05T14:47:37.351Z,20.81
2023-05-05T14:50:04.104Z,21.05
2023-05-05T14:52:30.690Z,21.17
2023-05-05T14:54:57.044Z,21.51
2023-05-05T14:57:23.482Z,21.82
2023-05-05T14:59:49.863Z,21.17
2023-05-05T15:02:16.249Z,21.07
2023-05-05T15:04:42.642Z,21.51
2023-05-05T15:07:09.078Z,20.87
2023-05-05T15:09:35.641Z,20.60
2023-05-05T15:12:02.033Z,20.73
2023-05-05T15:14:28.572Z,20.92
2023-05-05T15:16:55.073Z,21.30
2023-05-05T15:19:21.502Z,21.04
2023-05-05T15:21:47.988Z,21.26
2023-05-05T15:24:14.367Z,20.53
2023-05-05T15:26:40.753Z,20.32
2023-05-05T15:29:07.106Z,20.51
2023-05-05T15:31:33.582Z,20.55
2023-05-05T15:34:00.012Z,20.06
2023-05-05T15:36:26.638Z,20.02
2023-05-05T15:38:53.013Z,20.52
2023-05-05T15:41:19.427Z,21.17
2023-05-05T15:43:45.817Z,20.77
2023-05-05T15:46:12.158Z,20.95
2023-05-05T15:48:38.493Z,20.71
2023-05-05T15:51:04.885Z,20.77
2023-05-05T15:53:31.274Z,21.13
2023-05-05T15:55:57.720Z,21.21
2023-05-05T15:58:24.055Z,21.34
2023-05-05T16:00:50.494Z,21.70
2023-05-05T16:03:17.043Z,22.15
2023-05-05T16:05:43.567Z,21.93
2023-05-05T16:08:09.954Z,21.61
2023-05-05T16:10:36.343Z,21.40
2023-05-05T16:13:02.880Z,21.45
2023-05-05T16:15:29.266Z,21.67
2023-05-05T16:17:55.739Z,21.84
2023-05-05T16:20:22.167Z,22.44
2023-05-05T16:22:48.530Z,22.60
2023-05-05T16:25:14.943Z,22.06
2023-05-05T16:27:41.325Z,21.82
2023-05-05T16:30:07.718Z,21.70
2023-05-05T16:32:34.081Z,21.77
2023-05-05T16:35:00.528Z,21.73
2023-05-05T16:37:26.975Z,21.75
2023-05-05T16:39:53.376Z,21.63
2023-05-05T16:42:19.882Z,21.49
2023-05-05T16:44:46.257Z,21.62
2023-05-05T16:47:12.628Z,21.94
2023-05-05T16:49:39.028Z,22.22
2023-05-05T16:52:05.428Z,22.66
2023-05-05T16:54:31.788Z,22.69
2023-05-05T16:56:58.200Z,22.46
2023-05-05T16:59:25.495Z,22.24
2023-05-05T17:01:51.903Z,21.06
2023-05-05T17:04:18.641Z,20.78
2023-05-05T17:06:45.009Z,20.82
2023-05-05T17:09:11.448Z,20.42
2023-05-05T17:11:38.066Z,20.48
2023-05-05T17:14:04.483Z,20.57
2023-05-05T17:16:33.393Z,20.61
2023-05-05T17:18:59.853Z,20.59
2023-05-05T17:21:26.247Z,20.68
2023-05-05T17:23:52.657Z,20.65
2023-05-05T17:26:19.225Z,20.79
2023-05-05T17:28:45.622Z,20.88
2023-05-05T17:31:12.010Z,21.02
2023-05-05T17:33:38.397Z,21.15
2023-05-05T17:36:04.919Z,21.24
2023-05-05T17:38:31.303Z,21.21
2023-05-05T17:40:57.666Z,21.17
2023-05-05T17:43:24.124Z,21.08
2023-05-05T17:45:50.579Z,20.98
2023-05-05T17:48:17.018Z,20.96
2023-05-05T17:50:43.622Z,20.95
2023-05-05T17:53:10.030Z,20.93
2023-05-05T17:55:36.426Z,20.87
2023-05-05T17:58:02.813Z,20.83
2023-05-05T18:00:29.212Z,20.79
2023-05-05T18:02:55.657Z,20.68
2023-05-05T18:05:22.092Z,20.64
2023-05-05T18:07:48.445Z,20.62
2023-05-05T18:10:14.790Z,20.55
2023-05-05T18:12:41.206Z,20.50
2023-05-05T18:15:07.765Z,20.49
2023-05-05T18:17:34.228Z,20.42
2023-05-05T18:20:00.631Z,20.37
2023-05-05T18:22:26.970Z,20.33
2023-05-05T18:24:53.297Z,20.34
2023-05-05T18:27:19.630Z,20.31
2023-05-05T18:29:46.014Z,20.25
2023-05-05T18:32:12.430Z,20.17
2023-05-05T18:34:38.778Z,20.12
2023-05-05T18:37:05.156Z,20.05
2023-05-05T18:39:31.526Z,20.00
2023-05-05T18:41:57.906Z,19.92
2023-05-05T18:44:24.648Z,19.81
2023-05-05T18:46:51.783Z,19.75
2023-05-05T18:49:22.663Z,19.73
2023-05-05T18:51:49.727Z,19.71
2023-05-05T18:54:16.397Z,19.62
2023-05-05T18:56:44.819Z,19.44
2023-05-05T18:59:11.930Z,19.35
2023-05-05T19:01:39.886Z,19.37
2023-05-05T19:04:15.502Z,19.32
2023-05-05T19:06:45.473Z,19.28
2023-05-05T19:09:11.942Z,19.32
2023-05-05T19:11:38.544Z,19.26
2023-05-05T19:14:05.020Z,19.16
2023-05-05T19:16:31.436Z,19.12
2023-05-05T19:18:57.930Z,19.05
2023-05-05T19:21:24.604Z,19.04
2023-05-05T19:23:50.971Z,19.00
2023-05-05T19:26:17.329Z,18.95
2023-05-05T19:28:43.720Z,18.83
2023-05-05T19:31:10.101Z,18.80
2023-05-05T19:33:36.533Z,18.78
2023-05-05T19:36:02.948Z,18.60
2023-05-05T19:38:29.288Z,18.59
2023-05-05T19:40:55.860Z,18.55
2023-05-05T19:43:22.325Z,18.51
2023-05-05T19:45:48.787Z,18.52
2023-05-05T19:48:15.314Z,18.56
2023-05-05T19:50:41.646Z,18.60
2023-05-05T19:53:07.999Z,18.62
2023-05-05T19:55:34.493Z,18.59
2023-05-05T19:58:00.833Z,18.53
2023-05-05T20:00:28.690Z,18.48
2023-05-05T20:02:55.091Z,18.32
2023-05-05T20:05:21.578Z,18.22
2023-05-05T20:07:48.032Z,18.18
2023-05-05T20:10:14.551Z,18.16
2023-05-05T20:12:41.151Z,18.19
2023-05-05T20:15:07.592Z,18.20
2023-05-05T20:17:33.991Z,18.23
2023-05-05T20:20:01.455Z,18.11
2023-05-05T20:22:27.807Z,18.06
2023-05-05T20:24:54.187Z,18.00
2023-05-05T20:27:20.569Z,17.77
2023-05-05T20:29:46.934Z,17.80
2023-05-05T20:32:13.281Z,17.68
2023-05-05T20:34:39.656Z,17.63
2023-05-05T20:37:06.130Z,17.67
2023-05-05T20:39:32.532Z,17.74
2023-05-05T20:41:59.082Z,17.79
2023-05-05T20:44:25.420Z,17.80
2023-05-05T20:46:52.137Z,17.80
2023-05-05T20:49:18.989Z,17.80
2023-05-05T20:51:45.329Z,17.79
2023-05-05T20:54:11.665Z,17.76
2023-05-05T20:56:39.224Z,17.74
2023-05-05T20:59:05.605Z,17.73
2023-05-05T21:01:32.154Z,17.70
2023-05-05T21:03:58.696Z,17.65
2023-05-05T21:06:25.094Z,17.59
2023-05-05T21:08:51.659Z,17.47
2023-05-05T21:11:18.075Z,17.32
2023-05-05T21:13:45.443Z,17.25
2023-05-05T21:16:12.112Z,17.24
2023-05-05T21:51:02.832Z,16.83
2023-05-05T21:53:34.970Z,16.86
2023-05-05T21:58:46.229Z,16.87
2023-05-05T22:01:14.312Z,16.82
2023-05-05T22:03:52.474Z,16.80
2023-05-05T22:06:18.925Z,16.67
2023-05-05T22:08:45.395Z,16.62
2023-05-05T22:11:11.802Z,16.65
2023-05-05T22:16:28.699Z,16.75
2023-05-05T22:18:55.221Z,16.76
2023-05-05T22:29:21.329Z,16.91
2023-05-05T22:31:54.545Z,16.90
2023-05-05T22:35:23.710Z,16.91
2023-05-05T22:37:37.523Z,16.98
2023-05-05T22:43:01.273Z,17.07
2023-05-05T22:45:27.946Z,16.96
2023-05-05T22:48:01.960Z,16.95
2023-05-05T22:50:28.493Z,17.02
2023-05-05T22:53:01.524Z,17.03
2023-05-05T22:55:27.932Z,16.78
2023-05-05T22:57:57.264Z,16.75
2023-05-05T23:00:23.769Z,16.78
2023-05-05T23:02:50.264Z,16.75
2023-05-05T23:05:16.816Z,16.76
2023-05-05T23:07:56.994Z,16.77
2023-05-05T23:10:23.836Z,16.77
2023-05-05T23:12:50.423Z,16.75
2023-05-05T23:16:58.040Z,16.73
2023-05-05T23:20:59.061Z,16.62
2023-05-05T23:23:25.624Z,16.51
2023-05-05T23:25:52.094Z,16.44
2023-05-05T23:28:18.538Z,16.39
2023-05-05T23:30:45.077Z,16.38
2023-05-05T23:33:11.654Z,16.40
2023-05-05T23:35:38.145Z,16.39
2023-05-05T23:38:04.748Z,16.42
2023-05-05T23:40:31.429Z,16.33
2023-05-05T23:42:57.895Z,16.29
2023-05-05T23:45:24.373Z,16.18
2023-05-05T23:47:50.935Z,16.09
2023-05-05T23:50:17.413Z,16.01
2023-05-05T23:52:43.802Z,15.97
2023-05-05T23:55:10.428Z,15.97
2023-05-05T23:57:37.134Z,15.95
